sensor_id;sensor_type;location;lat;lon;timestamp;temperature;humidity
11840;DHT22;5979;50.800;4.904;2024-01-30T00:01:36;7.10;99.90
11840;DHT22;5979;50.800;4.904;2024-01-30T00:04:02;7.10;99.90
11840;DHT22;5979;50.800;4.904;2024-01-30T00:06:28;7.00;99.90
11840;DHT22;5979;50.800;4.904;2024-01-30T00:08:53;7.00;99.90
11840;DHT22;5979;50.800;4.904;2024-01-30T00:11:19;7.00;99.90
11840;DHT22;5979;50.800;4.904;2024-01-30T00:13:45;7.00;99.90
11840;DHT22;5979;50.800;4.904;2024-01-30T00:16:24;7.00;99.90
11840;DHT22;5979;50.800;4.904;2024-01-30T00:18:53;7.00;99.90
11840;DHT22;5979;50.800;4.904;2024-01-30T00:21:20;6.90;99.90
11840;DHT22;5979;50.800;4.904;2024-01-30T00:23:46;6.90;99.90
11840;DHT22;5979;50.800;4.904;2024-01-30T00:26:11;6.80;99.90
11840;DHT22;5979;50.800;4.904;2024-01-30T00:28:38;6.80;99.90
11840;DHT22;5979;50.800;4.904;2024-01-30T00:31:04;6.80;99.90
11840;DHT22;5979;50.800;4.904;2024-01-30T00:33:30;6.80;99.90
11840;DHT22;5979;50.800;4.904;2024-01-30T00:35:56;6.80;99.90
11840;DHT22;5979;50.800;4.904;2024-01-30T00:38:22;6.90;99.90
11840;DHT22;5979;50.800;4.904;2024-01-30T00:40:48;6.90;99.90
11840;DHT22;5979;50.800;4.904;2024-01-30T00:43:14;7.00;99.90
11840;DHT22;5979;50.800;4.904;2024-01-30T00:45:40;7.00;99.90
11840;DHT22;5979;50.800;4.904;2024-01-30T00:48:06;7.10;99.90
11840;DHT22;5979;50.800;4.904;2024-01-30T00:50:31;7.10;99.90
11840;DHT22;5979;50.800;4.904;2024-01-30T00:52:57;7.20;99.90
11840;DHT22;5979;50.800;4.904;2024-01-30T00:55:23;7.20;99.90
11840;DHT22;5979;50.800;4.904;2024-01-30T00:57:48;7.30;99.90
11840;DHT22;5979;50.800;4.904;2024-01-30T01:00:14;7.30;99.90
11840;DHT22;5979;50.800;4.904;2024-01-30T01:02:43;7.40;99.90
11840;DHT22;5979;50.800;4.904;2024-01-30T01:05:10;7.40;99.90
11840;DHT22;5979;50.800;4.904;2024-01-30T01:07:36;7.40;99.90
11840;DHT22;5979;50.800;4.904;2024-01-30T01:10:02;7.50;99.90
11840;DHT22;5979;50.800;4.904;2024-01-30T01:12:28;7.50;99.90
11840;DHT22;5979;50.800;4.904;2024-01-30T01:14:54;7.60;99.90
11840;DHT22;5979;50.800;4.904;2024-01-30T01:17:19;7.60;99.90
11840;DHT22;5979;50.800;4.904;2024-01-30T01:19:45;7.60;99.90
11840;DHT22;5979;50.800;4.904;2024-01-30T01:22:11;7.70;99.90
11840;DHT22;5979;50.800;4.904;2024-01-30T01:24:37;7.70;99.90
11840;DHT22;5979;50.800;4.904;2024-01-30T01:27:03;7.80;99.90
11840;DHT22;5979;50.800;4.904;2024-01-30T01:29:29;7.80;99.90
11840;DHT22;5979;50.800;4.904;2024-01-30T01:31:55;7.80;99.90
11840;DHT22;5979;50.800;4.904;2024-01-30T01:34:21;7.90;99.90
11840;DHT22;5979;50.800;4.904;2024-01-30T01:36:48;7.90;99.90
11840;DHT22;5979;50.800;4.904;2024-01-30T01:39:14;7.90;99.90
11840;DHT22;5979;50.800;4.904;2024-01-30T01:41:39;8.00;99.90
11840;DHT22;5979;50.800;4.904;2024-01-30T01:44:05;8.00;99.90
11840;DHT22;5979;50.800;4.904;2024-01-30T01:46:34;8.00;99.90
11840;DHT22;5979;50.800;4.904;2024-01-30T01:49:02;8.00;99.90
11840;DHT22;5979;50.800;4.904;2024-01-30T01:51:28;8.00;99.90
11840;DHT22;5979;50.800;4.904;2024-01-30T01:53:56;8.00;99.90
11840;DHT22;5979;50.800;4.904;2024-01-30T01:56:23;8.00;99.90
11840;DHT22;5979;50.800;4.904;2024-01-30T01:58:50;8.00;99.90
11840;DHT22;5979;50.800;4.904;2024-01-30T02:01:20;8.00;99.90
11840;DHT22;5979;50.800;4.904;2024-01-30T02:03:47;8.00;99.90
11840;DHT22;5979;50.800;4.904;2024-01-30T02:06:16;8.00;99.90
11840;DHT22;5979;50.800;4.904;2024-01-30T02:08:42;8.00;99.90
11840;DHT22;5979;50.800;4.904;2024-01-30T02:11:08;8.00;99.90
11840;DHT22;5979;50.800;4.904;2024-01-30T02:13:36;8.00;99.90
11840;DHT22;5979;50.800;4.904;2024-01-30T02:16:01;8.00;99.90
11840;DHT22;5979;50.800;4.904;2024-01-30T02:18:27;8.00;99.90
11840;DHT22;5979;50.800;4.904;2024-01-30T02:20:54;7.90;99.90
11840;DHT22;5979;50.800;4.904;2024-01-30T02:23:23;7.90;99.90
11840;DHT22;5979;50.800;4.904;2024-01-30T02:25:50;7.90;99.90
11840;DHT22;5979;50.800;4.904;2024-01-30T02:28:18;7.80;99.90
11840;DHT22;5979;50.800;4.904;2024-01-30T02:30:44;7.70;99.90
11840;DHT22;5979;50.800;4.904;2024-01-30T02:33:10;7.70;99.90
11840;DHT22;5979;50.800;4.904;2024-01-30T02:35:35;7.60;99.90
11840;DHT22;5979;50.800;4.904;2024-01-30T02:38:01;7.60;99.90
11840;DHT22;5979;50.800;4.904;2024-01-30T02:40:27;7.60;99.90
11840;DHT22;5979;50.800;4.904;2024-01-30T02:42:52;7.60;99.90
11840;DHT22;5979;50.800;4.904;2024-01-30T02:45:18;7.60;99.90
11840;DHT22;5979;50.800;4.904;2024-01-30T02:47:44;7.60;99.90
11840;DHT22;5979;50.800;4.904;2024-01-30T02:50:09;7.70;99.90
11840;DHT22;5979;50.800;4.904;2024-01-30T02:52:35;7.80;99.90
11840;DHT22;5979;50.800;4.904;2024-01-30T02:55:01;7.80;99.90
11840;DHT22;5979;50.800;4.904;2024-01-30T02:57:28;7.80;99.90
11840;DHT22;5979;50.800;4.904;2024-01-30T02:59:54;7.90;99.90
11840;DHT22;5979;50.800;4.904;2024-01-30T03:02:19;7.90;99.90
11840;DHT22;5979;50.800;4.904;2024-01-30T03:04:45;8.00;99.90
11840;DHT22;5979;50.800;4.904;2024-01-30T03:07:11;8.10;99.90
11840;DHT22;5979;50.800;4.904;2024-01-30T03:09:37;8.10;99.90
11840;DHT22;5979;50.800;4.904;2024-01-30T03:12:03;8.10;99.90
11840;DHT22;5979;50.800;4.904;2024-01-30T03:14:31;8.20;99.90
11840;DHT22;5979;50.800;4.904;2024-01-30T03:16:57;8.20;99.90
11840;DHT22;5979;50.800;4.904;2024-01-30T03:19:23;8.30;99.90
11840;DHT22;5979;50.800;4.904;2024-01-30T03:21:48;8.30;99.90
11840;DHT22;5979;50.800;4.904;2024-01-30T03:24:14;8.30;99.90
11840;DHT22;5979;50.800;4.904;2024-01-30T03:26:40;8.30;99.90
11840;DHT22;5979;50.800;4.904;2024-01-30T03:29:05;8.40;99.90
11840;DHT22;5979;50.800;4.904;2024-01-30T03:31:31;8.50;99.90
11840;DHT22;5979;50.800;4.904;2024-01-30T03:33:57;8.50;99.90
11840;DHT22;5979;50.800;4.904;2024-01-30T03:36:23;8.50;99.90
11840;DHT22;5979;50.800;4.904;2024-01-30T03:38:49;8.60;99.90
11840;DHT22;5979;50.800;4.904;2024-01-30T03:41:14;8.60;99.90
11840;DHT22;5979;50.800;4.904;2024-01-30T03:43:40;8.60;99.90
11840;DHT22;5979;50.800;4.904;2024-01-30T03:46:06;8.70;99.90
11840;DHT22;5979;50.800;4.904;2024-01-30T03:48:31;8.70;99.90
11840;DHT22;5979;50.800;4.904;2024-01-30T03:50:57;8.70;99.90
11840;DHT22;5979;50.800;4.904;2024-01-30T03:53:23;8.70;99.90
11840;DHT22;5979;50.800;4.904;2024-01-30T03:55:48;8.80;99.90
11840;DHT22;5979;50.800;4.904;2024-01-30T03:58:14;8.80;99.90
11840;DHT22;5979;50.800;4.904;2024-01-30T04:00:40;8.80;99.90
11840;DHT22;5979;50.800;4.904;2024-01-30T04:03:06;8.80;99.90
11840;DHT22;5979;50.800;4.904;2024-01-30T04:05:32;8.80;99.90
11840;DHT22;5979;50.800;4.904;2024-01-30T04:07:58;8.80;99.90
11840;DHT22;5979;50.800;4.904;2024-01-30T04:10:24;8.80;99.90
11840;DHT22;5979;50.800;4.904;2024-01-30T04:12:50;8.80;99.90
11840;DHT22;5979;50.800;4.904;2024-01-30T04:15:17;8.80;99.90
11840;DHT22;5979;50.800;4.904;2024-01-30T04:17:43;8.80;99.90
11840;DHT22;5979;50.800;4.904;2024-01-30T04:20:16;8.80;99.90
11840;DHT22;5979;50.800;4.904;2024-01-30T04:22:46;8.80;99.90
11840;DHT22;5979;50.800;4.904;2024-01-30T04:25:14;8.80;99.90
11840;DHT22;5979;50.800;4.904;2024-01-30T04:27:40;8.80;99.90
11840;DHT22;5979;50.800;4.904;2024-01-30T04:30:06;8.90;99.90
11840;DHT22;5979;50.800;4.904;2024-01-30T04:32:32;8.80;99.90
11840;DHT22;5979;50.800;4.904;2024-01-30T04:34:58;8.80;99.90
11840;DHT22;5979;50.800;4.904;2024-01-30T04:37:24;8.90;99.90
11840;DHT22;5979;50.800;4.904;2024-01-30T04:39:50;8.90;99.90
11840;DHT22;5979;50.800;4.904;2024-01-30T04:42:17;8.90;99.90
11840;DHT22;5979;50.800;4.904;2024-01-30T04:44:42;8.90;99.90
11840;DHT22;5979;50.800;4.904;2024-01-30T04:47:08;8.90;99.90
11840;DHT22;5979;50.800;4.904;2024-01-30T04:49:36;9.00;99.90
11840;DHT22;5979;50.800;4.904;2024-01-30T04:52:02;9.00;99.90
11840;DHT22;5979;50.800;4.904;2024-01-30T04:54:28;8.90;99.90
11840;DHT22;5979;50.800;4.904;2024-01-30T04:56:53;8.90;99.90
11840;DHT22;5979;50.800;4.904;2024-01-30T04:59:19;8.90;99.90
11840;DHT22;5979;50.800;4.904;2024-01-30T05:01:44;8.90;99.90
11840;DHT22;5979;50.800;4.904;2024-01-30T05:04:10;8.90;99.90
11840;DHT22;5979;50.800;4.904;2024-01-30T05:06:36;8.90;99.90
11840;DHT22;5979;50.800;4.904;2024-01-30T05:09:02;8.90;99.90
11840;DHT22;5979;50.800;4.904;2024-01-30T05:11:30;9.00;99.90
11840;DHT22;5979;50.800;4.904;2024-01-30T05:13:55;8.90;99.90
11840;DHT22;5979;50.800;4.904;2024-01-30T05:16:21;9.00;99.90
11840;DHT22;5979;50.800;4.904;2024-01-30T05:18:47;9.00;99.90
11840;DHT22;5979;50.800;4.904;2024-01-30T05:21:13;9.00;99.90
11840;DHT22;5979;50.800;4.904;2024-01-30T05:23:39;9.00;99.90
11840;DHT22;5979;50.800;4.904;2024-01-30T05:26:05;9.00;99.90
11840;DHT22;5979;50.800;4.904;2024-01-30T05:28:31;9.00;99.90
11840;DHT22;5979;50.800;4.904;2024-01-30T05:30:57;9.00;99.90
11840;DHT22;5979;50.800;4.904;2024-01-30T05:33:23;9.00;99.90
11840;DHT22;5979;50.800;4.904;2024-01-30T05:35:48;9.00;99.90
11840;DHT22;5979;50.800;4.904;2024-01-30T05:38:15;9.00;99.90
11840;DHT22;5979;50.800;4.904;2024-01-30T05:40:41;9.00;99.90
11840;DHT22;5979;50.800;4.904;2024-01-30T05:43:07;9.10;99.90
11840;DHT22;5979;50.800;4.904;2024-01-30T05:45:33;9.10;99.90
11840;DHT22;5979;50.800;4.904;2024-01-30T05:48:00;9.10;99.90
11840;DHT22;5979;50.800;4.904;2024-01-30T05:50:26;9.10;99.90
11840;DHT22;5979;50.800;4.904;2024-01-30T05:52:52;9.10;99.90
11840;DHT22;5979;50.800;4.904;2024-01-30T05:55:18;9.10;99.90
11840;DHT22;5979;50.800;4.904;2024-01-30T05:57:44;9.10;99.90
11840;DHT22;5979;50.800;4.904;2024-01-30T06:00:10;9.10;99.90
11840;DHT22;5979;50.800;4.904;2024-01-30T06:02:36;9.10;99.90
11840;DHT22;5979;50.800;4.904;2024-01-30T06:05:02;9.10;99.90
11840;DHT22;5979;50.800;4.904;2024-01-30T06:07:27;9.10;99.90
11840;DHT22;5979;50.800;4.904;2024-01-30T06:09:53;9.10;99.90
11840;DHT22;5979;50.800;4.904;2024-01-30T06:12:19;9.10;99.90
11840;DHT22;5979;50.800;4.904;2024-01-30T06:14:44;9.10;99.90
11840;DHT22;5979;50.800;4.904;2024-01-30T06:17:10;9.00;99.90
11840;DHT22;5979;50.800;4.904;2024-01-30T06:19:39;9.10;99.90
11840;DHT22;5979;50.800;4.904;2024-01-30T06:22:05;9.10;99.90
11840;DHT22;5979;50.800;4.904;2024-01-30T06:24:31;9.10;99.90
11840;DHT22;5979;50.800;4.904;2024-01-30T06:26:57;9.00;99.90
11840;DHT22;5979;50.800;4.904;2024-01-30T06:29:22;9.00;99.90
11840;DHT22;5979;50.800;4.904;2024-01-30T06:31:50;9.00;99.90
11840;DHT22;5979;50.800;4.904;2024-01-30T06:34:15;9.00;99.90
11840;DHT22;5979;50.800;4.904;2024-01-30T06:36:41;9.00;99.90
11840;DHT22;5979;50.800;4.904;2024-01-30T06:39:07;9.10;99.90
11840;DHT22;5979;50.800;4.904;2024-01-30T06:41:33;9.00;99.90
11840;DHT22;5979;50.800;4.904;2024-01-30T06:43:58;9.10;99.90
11840;DHT22;5979;50.800;4.904;2024-01-30T06:46:24;9.10;99.90
11840;DHT22;5979;50.800;4.904;2024-01-30T06:48:50;9.10;99.90
11840;DHT22;5979;50.800;4.904;2024-01-30T06:51:15;9.10;99.90
11840;DHT22;5979;50.800;4.904;2024-01-30T06:53:41;9.10;99.90
11840;DHT22;5979;50.800;4.904;2024-01-30T06:56:07;9.10;99.90
11840;DHT22;5979;50.800;4.904;2024-01-30T06:58:33;9.20;99.90
11840;DHT22;5979;50.800;4.904;2024-01-30T07:00:58;9.20;99.90
11840;DHT22;5979;50.800;4.904;2024-01-30T07:03:24;9.20;99.90
11840;DHT22;5979;50.800;4.904;2024-01-30T07:05:50;9.20;99.90
11840;DHT22;5979;50.800;4.904;2024-01-30T07:08:16;9.20;99.90
11840;DHT22;5979;50.800;4.904;2024-01-30T07:10:44;9.20;99.90
11840;DHT22;5979;50.800;4.904;2024-01-30T07:13:13;9.20;99.90
11840;DHT22;5979;50.800;4.904;2024-01-30T07:15:42;9.20;99.90
11840;DHT22;5979;50.800;4.904;2024-01-30T07:18:07;9.30;99.90
11840;DHT22;5979;50.800;4.904;2024-01-30T07:20:35;9.20;99.90
11840;DHT22;5979;50.800;4.904;2024-01-30T07:23:00;9.20;99.90
11840;DHT22;5979;50.800;4.904;2024-01-30T07:25:26;9.20;99.90
11840;DHT22;5979;50.800;4.904;2024-01-30T07:27:56;9.30;99.90
11840;DHT22;5979;50.800;4.904;2024-01-30T07:30:22;9.20;99.90
11840;DHT22;5979;50.800;4.904;2024-01-30T07:32:48;9.20;99.90
11840;DHT22;5979;50.800;4.904;2024-01-30T07:35:14;9.20;99.90
11840;DHT22;5979;50.800;4.904;2024-01-30T07:37:40;9.20;99.90
11840;DHT22;5979;50.800;4.904;2024-01-30T07:40:06;9.20;99.90
11840;DHT22;5979;50.800;4.904;2024-01-30T07:42:32;9.20;99.90
11840;DHT22;5979;50.800;4.904;2024-01-30T07:44:58;9.20;99.90
11840;DHT22;5979;50.800;4.904;2024-01-30T07:47:24;9.20;99.90
11840;DHT22;5979;50.800;4.904;2024-01-30T07:49:50;9.30;99.90
11840;DHT22;5979;50.800;4.904;2024-01-30T07:52:16;9.30;99.90
11840;DHT22;5979;50.800;4.904;2024-01-30T07:54:48;9.30;99.90
11840;DHT22;5979;50.800;4.904;2024-01-30T07:57:14;9.30;99.90
11840;DHT22;5979;50.800;4.904;2024-01-30T07:59:42;9.40;99.90
11840;DHT22;5979;50.800;4.904;2024-01-30T08:02:09;9.40;99.90
11840;DHT22;5979;50.800;4.904;2024-01-30T08:04:35;9.40;99.90
11840;DHT22;5979;50.800;4.904;2024-01-30T08:07:01;9.40;99.90
11840;DHT22;5979;50.800;4.904;2024-01-30T08:09:26;9.50;99.90
11840;DHT22;5979;50.800;4.904;2024-01-30T08:11:52;9.50;99.90
11840;DHT22;5979;50.800;4.904;2024-01-30T08:14:18;9.50;99.90
11840;DHT22;5979;50.800;4.904;2024-01-30T08:16:44;9.50;99.90
11840;DHT22;5979;50.800;4.904;2024-01-30T08:19:09;9.60;99.90
11840;DHT22;5979;50.800;4.904;2024-01-30T08:21:35;9.60;99.90
11840;DHT22;5979;50.800;4.904;2024-01-30T08:24:05;9.70;99.90
11840;DHT22;5979;50.800;4.904;2024-01-30T08:26:32;9.70;99.90
11840;DHT22;5979;50.800;4.904;2024-01-30T08:28:58;9.80;99.90
11840;DHT22;5979;50.800;4.904;2024-01-30T08:31:23;9.80;99.90
11840;DHT22;5979;50.800;4.904;2024-01-30T08:33:49;9.90;99.90
11840;DHT22;5979;50.800;4.904;2024-01-30T08:36:16;9.90;99.90
11840;DHT22;5979;50.800;4.904;2024-01-30T08:38:42;10.00;99.90
11840;DHT22;5979;50.800;4.904;2024-01-30T08:41:08;10.00;99.90
11840;DHT22;5979;50.800;4.904;2024-01-30T08:43:34;10.10;99.90
11840;DHT22;5979;50.800;4.904;2024-01-30T08:46:00;10.10;99.90
11840;DHT22;5979;50.800;4.904;2024-01-30T08:48:26;10.10;99.90
11840;DHT22;5979;50.800;4.904;2024-01-30T08:50:52;10.10;99.90
11840;DHT22;5979;50.800;4.904;2024-01-30T08:53:17;10.10;99.90
11840;DHT22;5979;50.800;4.904;2024-01-30T08:55:44;10.10;99.90
11840;DHT22;5979;50.800;4.904;2024-01-30T08:58:09;10.20;99.90
11840;DHT22;5979;50.800;4.904;2024-01-30T09:00:35;10.20;99.90
11840;DHT22;5979;50.800;4.904;2024-01-30T09:03:01;10.20;99.90
11840;DHT22;5979;50.800;4.904;2024-01-30T09:05:26;10.20;99.90
11840;DHT22;5979;50.800;4.904;2024-01-30T09:07:52;10.20;99.90
11840;DHT22;5979;50.800;4.904;2024-01-30T09:10:18;10.30;99.90
11840;DHT22;5979;50.800;4.904;2024-01-30T09:12:43;10.30;99.90
11840;DHT22;5979;50.800;4.904;2024-01-30T09:15:09;10.40;99.90
11840;DHT22;5979;50.800;4.904;2024-01-30T09:17:35;10.40;99.90
11840;DHT22;5979;50.800;4.904;2024-01-30T09:20:00;10.50;99.90
11840;DHT22;5979;50.800;4.904;2024-01-30T09:22:26;10.60;99.90
11840;DHT22;5979;50.800;4.904;2024-01-30T09:24:52;10.70;99.90
11840;DHT22;5979;50.800;4.904;2024-01-30T09:27:17;10.80;99.90
11840;DHT22;5979;50.800;4.904;2024-01-30T09:29:43;11.00;99.90
11840;DHT22;5979;50.800;4.904;2024-01-30T09:32:08;11.10;99.90
11840;DHT22;5979;50.800;4.904;2024-01-30T09:34:34;11.20;99.90
11840;DHT22;5979;50.800;4.904;2024-01-30T09:37:00;11.30;99.90
11840;DHT22;5979;50.800;4.904;2024-01-30T09:39:26;11.40;99.90
11840;DHT22;5979;50.800;4.904;2024-01-30T09:42:16;11.40;99.90
11840;DHT22;5979;50.800;4.904;2024-01-30T09:44:44;11.40;99.90
11840;DHT22;5979;50.800;4.904;2024-01-30T09:47:12;11.40;99.90
11840;DHT22;5979;50.800;4.904;2024-01-30T09:49:38;11.50;99.90
11840;DHT22;5979;50.800;4.904;2024-01-30T09:52:05;11.50;99.90
11840;DHT22;5979;50.800;4.904;2024-01-30T09:54:32;11.50;99.90
11840;DHT22;5979;50.800;4.904;2024-01-30T09:56:58;11.50;99.90
11840;DHT22;5979;50.800;4.904;2024-01-30T09:59:24;11.50;99.90
11840;DHT22;5979;50.800;4.904;2024-01-30T10:01:50;11.50;99.90
11840;DHT22;5979;50.800;4.904;2024-01-30T10:04:17;11.50;99.90
11840;DHT22;5979;50.800;4.904;2024-01-30T10:06:43;11.50;99.90
11840;DHT22;5979;50.800;4.904;2024-01-30T10:09:08;11.50;99.90
11840;DHT22;5979;50.800;4.904;2024-01-30T10:11:36;11.50;99.90
11840;DHT22;5979;50.800;4.904;2024-01-30T10:14:01;11.50;99.90
11840;DHT22;5979;50.800;4.904;2024-01-30T10:16:27;11.50;99.90
11840;DHT22;5979;50.800;4.904;2024-01-30T10:18:53;11.50;99.90
11840;DHT22;5979;50.800;4.904;2024-01-30T10:21:19;11.50;99.90
11840;DHT22;5979;50.800;4.904;2024-01-30T10:23:44;11.60;99.90
11840;DHT22;5979;50.800;4.904;2024-01-30T10:26:10;11.60;99.90
11840;DHT22;5979;50.800;4.904;2024-01-30T10:28:36;11.70;99.90
11840;DHT22;5979;50.800;4.904;2024-01-30T10:31:02;11.70;99.90
11840;DHT22;5979;50.800;4.904;2024-01-30T10:33:31;11.70;99.90
11840;DHT22;5979;50.800;4.904;2024-01-30T10:36:01;11.70;99.90
11840;DHT22;5979;50.800;4.904;2024-01-30T10:38:29;11.70;99.90
11840;DHT22;5979;50.800;4.904;2024-01-30T10:41:00;11.70;99.90
11840;DHT22;5979;50.800;4.904;2024-01-30T10:43:47;11.70;99.90
11840;DHT22;5979;50.800;4.904;2024-01-30T10:46:19;11.70;99.90
11840;DHT22;5979;50.800;4.904;2024-01-30T10:48:58;11.80;99.90
11840;DHT22;5979;50.800;4.904;2024-01-30T10:51:26;11.70;99.90
11840;DHT22;5979;50.800;4.904;2024-01-30T10:53:52;11.80;99.90
11840;DHT22;5979;50.800;4.904;2024-01-30T10:56:21;11.80;99.90
11840;DHT22;5979;50.800;4.904;2024-01-30T10:58:48;11.80;99.90
11840;DHT22;5979;50.800;4.904;2024-01-30T11:01:15;11.80;99.90
11840;DHT22;5979;50.800;4.904;2024-01-30T11:03:41;11.80;99.90
11840;DHT22;5979;50.800;4.904;2024-01-30T11:06:11;11.80;99.90
11840;DHT22;5979;50.800;4.904;2024-01-30T11:08:44;11.80;99.90
11840;DHT22;5979;50.800;4.904;2024-01-30T11:11:10;11.70;99.90
11840;DHT22;5979;50.800;4.904;2024-01-30T11:13:36;11.70;99.90
11840;DHT22;5979;50.800;4.904;2024-01-30T11:16:05;11.70;99.90
11840;DHT22;5979;50.800;4.904;2024-01-30T11:18:32;11.70;99.90
11840;DHT22;5979;50.800;4.904;2024-01-30T11:20:59;11.70;99.90
11840;DHT22;5979;50.800;4.904;2024-01-30T11:23:30;11.70;99.90
11840;DHT22;5979;50.800;4.904;2024-01-30T11:25:57;11.80;99.90
11840;DHT22;5979;50.800;4.904;2024-01-30T11:28:23;11.80;99.90
11840;DHT22;5979;50.800;4.904;2024-01-30T11:30:49;11.90;99.90
11840;DHT22;5979;50.800;4.904;2024-01-30T11:33:28;11.90;99.90
11840;DHT22;5979;50.800;4.904;2024-01-30T11:35:57;12.00;99.90
11840;DHT22;5979;50.800;4.904;2024-01-30T11:38:25;12.00;99.90
11840;DHT22;5979;50.800;4.904;2024-01-30T11:40:51;12.00;99.90
11840;DHT22;5979;50.800;4.904;2024-01-30T11:43:18;12.00;99.90
11840;DHT22;5979;50.800;4.904;2024-01-30T11:45:44;12.00;99.90
11840;DHT22;5979;50.800;4.904;2024-01-30T11:48:12;12.10;99.90
11840;DHT22;5979;50.800;4.904;2024-01-30T11:50:39;12.10;99.90
11840;DHT22;5979;50.800;4.904;2024-01-30T11:53:05;12.20;99.90
11840;DHT22;5979;50.800;4.904;2024-01-30T11:55:31;12.30;99.90
11840;DHT22;5979;50.800;4.904;2024-01-30T11:57:57;12.30;99.90
11840;DHT22;5979;50.800;4.904;2024-01-30T12:00:24;12.20;99.90
11840;DHT22;5979;50.800;4.904;2024-01-30T12:02:50;12.10;99.90
11840;DHT22;5979;50.800;4.904;2024-01-30T12:05:18;12.10;99.90
11840;DHT22;5979;50.800;4.904;2024-01-30T12:07:44;11.90;99.90
11840;DHT22;5979;50.800;4.904;2024-01-30T12:10:12;11.80;99.90
11840;DHT22;5979;50.800;4.904;2024-01-30T12:12:39;11.70;99.90
11840;DHT22;5979;50.800;4.904;2024-01-30T12:15:06;11.60;99.90
11840;DHT22;5979;50.800;4.904;2024-01-30T12:17:33;11.60;99.90
11840;DHT22;5979;50.800;4.904;2024-01-30T12:20:06;11.60;99.90
11840;DHT22;5979;50.800;4.904;2024-01-30T12:22:46;11.60;99.90
11840;DHT22;5979;50.800;4.904;2024-01-30T12:25:13;11.60;99.90
11840;DHT22;5979;50.800;4.904;2024-01-30T12:27:43;11.70;99.90
11840;DHT22;5979;50.800;4.904;2024-01-30T12:30:11;11.80;99.90
11840;DHT22;5979;50.800;4.904;2024-01-30T12:32:39;11.90;99.90
11840;DHT22;5979;50.800;4.904;2024-01-30T12:35:09;11.90;99.90
11840;DHT22;5979;50.800;4.904;2024-01-30T12:37:35;12.00;99.90
11840;DHT22;5979;50.800;4.904;2024-01-30T12:40:01;11.90;99.90
11840;DHT22;5979;50.800;4.904;2024-01-30T12:42:27;12.00;99.90
11840;DHT22;5979;50.800;4.904;2024-01-30T12:44:53;12.00;99.90
11840;DHT22;5979;50.800;4.904;2024-01-30T12:47:21;12.00;99.90
11840;DHT22;5979;50.800;4.904;2024-01-30T12:49:47;12.00;99.90
11840;DHT22;5979;50.800;4.904;2024-01-30T12:52:16;11.90;99.90
11840;DHT22;5979;50.800;4.904;2024-01-30T12:54:41;11.90;99.90
11840;DHT22;5979;50.800;4.904;2024-01-30T12:57:07;11.90;99.90
11840;DHT22;5979;50.800;4.904;2024-01-30T12:59:33;11.90;99.90
11840;DHT22;5979;50.800;4.904;2024-01-30T13:02:00;12.00;99.90
11840;DHT22;5979;50.800;4.904;2024-01-30T13:04:27;12.00;99.90
11840;DHT22;5979;50.800;4.904;2024-01-30T13:06:53;12.00;99.90
11840;DHT22;5979;50.800;4.904;2024-01-30T13:09:18;11.90;99.90
11840;DHT22;5979;50.800;4.904;2024-01-30T13:11:44;11.90;99.90
11840;DHT22;5979;50.800;4.904;2024-01-30T13:14:10;11.90;99.90
11840;DHT22;5979;50.800;4.904;2024-01-30T13:16:35;11.90;99.90
11840;DHT22;5979;50.800;4.904;2024-01-30T13:19:01;11.90;99.90
11840;DHT22;5979;50.800;4.904;2024-01-30T13:21:27;11.90;99.90
11840;DHT22;5979;50.800;4.904;2024-01-30T13:23:53;11.90;99.90
11840;DHT22;5979;50.800;4.904;2024-01-30T13:26:20;11.90;99.90
11840;DHT22;5979;50.800;4.904;2024-01-30T13:28:46;11.90;99.90
11840;DHT22;5979;50.800;4.904;2024-01-30T13:31:13;12.00;99.90
11840;DHT22;5979;50.800;4.904;2024-01-30T13:33:40;12.00;99.90
11840;DHT22;5979;50.800;4.904;2024-01-30T13:36:10;12.00;99.90
11840;DHT22;5979;50.800;4.904;2024-01-30T13:38:36;12.00;99.90
11840;DHT22;5979;50.800;4.904;2024-01-30T13:41:01;12.00;99.90
11840;DHT22;5979;50.800;4.904;2024-01-30T13:43:28;11.90;99.90
11840;DHT22;5979;50.800;4.904;2024-01-30T13:45:54;11.80;99.90
11840;DHT22;5979;50.800;4.904;2024-01-30T13:48:20;11.80;99.90
11840;DHT22;5979;50.800;4.904;2024-01-30T13:50:46;11.80;99.90
11840;DHT22;5979;50.800;4.904;2024-01-30T13:53:12;11.70;99.90
11840;DHT22;5979;50.800;4.904;2024-01-30T13:55:37;11.70;99.90
11840;DHT22;5979;50.800;4.904;2024-01-30T13:58:05;11.60;99.90
11840;DHT22;5979;50.800;4.904;2024-01-30T14:00:31;11.50;99.90
11840;DHT22;5979;50.800;4.904;2024-01-30T14:02:57;11.50;99.90
11840;DHT22;5979;50.800;4.904;2024-01-30T14:05:24;11.50;99.90
11840;DHT22;5979;50.800;4.904;2024-01-30T14:07:51;11.50;99.90
11840;DHT22;5979;50.800;4.904;2024-01-30T14:10:17;11.40;99.90
11840;DHT22;5979;50.800;4.904;2024-01-30T14:12:43;11.40;99.90
11840;DHT22;5979;50.800;4.904;2024-01-30T14:15:10;11.40;99.90
11840;DHT22;5979;50.800;4.904;2024-01-30T14:17:36;11.40;99.90
11840;DHT22;5979;50.800;4.904;2024-01-30T14:20:03;11.30;99.90
11840;DHT22;5979;50.800;4.904;2024-01-30T14:22:33;11.40;99.90
11840;DHT22;5979;50.800;4.904;2024-01-30T14:24:59;11.30;99.90
11840;DHT22;5979;50.800;4.904;2024-01-30T14:27:25;11.30;99.90
11840;DHT22;5979;50.800;4.904;2024-01-30T14:29:51;11.30;99.90
11840;DHT22;5979;50.800;4.904;2024-01-30T14:32:17;11.20;99.90
11840;DHT22;5979;50.800;4.904;2024-01-30T14:34:42;11.20;99.90
11840;DHT22;5979;50.800;4.904;2024-01-30T14:37:08;11.20;99.90
11840;DHT22;5979;50.800;4.904;2024-01-30T14:39:34;11.20;99.90
11840;DHT22;5979;50.800;4.904;2024-01-30T14:42:03;11.20;99.90
11840;DHT22;5979;50.800;4.904;2024-01-30T14:44:29;11.20;99.90
11840;DHT22;5979;50.800;4.904;2024-01-30T14:46:56;11.20;99.90
11840;DHT22;5979;50.800;4.904;2024-01-30T14:49:21;11.20;99.90
11840;DHT22;5979;50.800;4.904;2024-01-30T14:51:47;11.10;99.90
11840;DHT22;5979;50.800;4.904;2024-01-30T14:54:13;11.10;99.90
11840;DHT22;5979;50.800;4.904;2024-01-30T14:56:38;11.10;99.90
11840;DHT22;5979;50.800;4.904;2024-01-30T14:59:04;11.10;99.90
11840;DHT22;5979;50.800;4.904;2024-01-30T15:01:30;11.10;99.90
11840;DHT22;5979;50.800;4.904;2024-01-30T15:03:56;11.10;99.90
11840;DHT22;5979;50.800;4.904;2024-01-30T15:06:21;11.10;99.90
11840;DHT22;5979;50.800;4.904;2024-01-30T15:08:50;11.10;99.90
11840;DHT22;5979;50.800;4.904;2024-01-30T15:11:15;11.10;99.90
11840;DHT22;5979;50.800;4.904;2024-01-30T15:13:41;11.00;99.90
11840;DHT22;5979;50.800;4.904;2024-01-30T15:16:07;11.00;99.90
11840;DHT22;5979;50.800;4.904;2024-01-30T15:18:33;11.00;99.90
11840;DHT22;5979;50.800;4.904;2024-01-30T15:20:59;10.90;99.90
11840;DHT22;5979;50.800;4.904;2024-01-30T15:23:25;10.90;99.90
11840;DHT22;5979;50.800;4.904;2024-01-30T15:25:50;10.90;99.90
11840;DHT22;5979;50.800;4.904;2024-01-30T15:28:16;10.90;99.90
11840;DHT22;5979;50.800;4.904;2024-01-30T15:30:42;10.90;99.90
11840;DHT22;5979;50.800;4.904;2024-01-30T15:33:15;10.80;99.90
11840;DHT22;5979;50.800;4.904;2024-01-30T15:35:40;10.80;99.90
11840;DHT22;5979;50.800;4.904;2024-01-30T15:38:07;10.80;99.90
11840;DHT22;5979;50.800;4.904;2024-01-30T15:40:34;10.70;99.90
11840;DHT22;5979;50.800;4.904;2024-01-30T15:43:00;10.70;99.90
11840;DHT22;5979;50.800;4.904;2024-01-30T15:45:26;10.60;99.90
11840;DHT22;5979;50.800;4.904;2024-01-30T15:47:51;10.60;99.90
11840;DHT22;5979;50.800;4.904;2024-01-30T15:50:17;10.60;99.90